3 – eServices

Baggage tracing
Cargo tracing
Weather
  • METAR

    EFMA 180620Z AUTO 06005KT 020V100 CAVOK 17/12 Q1012

    EFTU 180620Z AUTO 06003KT 020V100 CAVOK 18/12 Q1011

    EFHK 180620Z 36008KT 330V030 CAVOK 18/12 Q1010 NOSIG

    ESSA 180620Z VRB02KT CAVOK 17/12 Q1012 NOSIG

    ESSB 180620Z VRB01KT CAVOK 19/13 Q1012

  • TAF n/a

Flightradar24